sensor_id;sensor_type;location;lat;lon;timestamp;P1;durP1;ratioP1;P2;durP2;ratioP2
76729;SDS011;65653;53.106;18.046;2023-11-18T00:00:10;36.90;;;12.80;;
76729;SDS011;65653;53.106;18.046;2023-11-18T00:02:58;35.30;;;12.90;;
76729;SDS011;65653;53.106;18.046;2023-11-18T00:05:24;51.70;;;16.90;;
76729;SDS011;65653;53.106;18.046;2023-11-18T00:07:50;48.70;;;15.70;;
76729;SDS011;65653;53.106;18.046;2023-11-18T00:10:16;28.10;;;8.00;;
76729;SDS011;65653;53.106;18.046;2023-11-18T00:12:42;53.00;;;16.80;;
76729;SDS011;65653;53.106;18.046;2023-11-18T00:15:09;50.10;;;15.20;;
76729;SDS011;65653;53.106;18.046;2023-11-18T00:17:37;48.10;;;15.90;;
76729;SDS011;65653;53.106;18.046;2023-11-18T00:20:03;40.80;;;12.70;;
76729;SDS011;65653;53.106;18.046;2023-11-18T00:22:40;57.00;;;18.80;;
76729;SDS011;65653;53.106;18.046;2023-11-18T00:25:07;44.20;;;14.80;;
76729;SDS011;65653;53.106;18.046;2023-11-18T00:27:34;49.20;;;15.70;;
76729;SDS011;65653;53.106;18.046;2023-11-18T00:30:02;42.80;;;14.40;;
76729;SDS011;65653;53.106;18.046;2023-11-18T00:32:31;66.00;;;19.10;;
76729;SDS011;65653;53.106;18.046;2023-11-18T00:34:57;64.50;;;17.80;;
76729;SDS011;65653;53.106;18.046;2023-11-18T00:37:23;37.90;;;11.40;;
76729;SDS011;65653;53.106;18.046;2023-11-18T00:39:49;54.90;;;16.50;;
76729;SDS011;65653;53.106;18.046;2023-11-18T00:42:14;52.70;;;15.80;;
76729;SDS011;65653;53.106;18.046;2023-11-18T00:44:41;62.00;;;19.00;;
76729;SDS011;65653;53.106;18.046;2023-11-18T00:47:07;49.70;;;15.40;;
76729;SDS011;65653;53.106;18.046;2023-11-18T00:49:33;47.70;;;15.20;;
76729;SDS011;65653;53.106;18.046;2023-11-18T00:51:59;75.60;;;19.20;;
76729;SDS011;65653;53.106;18.046;2023-11-18T00:54:25;54.60;;;16.40;;
76729;SDS011;65653;53.106;18.046;2023-11-18T00:56:51;59.90;;;18.00;;
76729;SDS011;65653;53.106;18.046;2023-11-18T00:59:16;70.20;;;19.30;;
76729;SDS011;65653;53.106;18.046;2023-11-18T01:01:42;50.90;;;15.70;;
76729;SDS011;65653;53.106;18.046;2023-11-18T01:04:08;82.70;;;20.30;;
76729;SDS011;65653;53.106;18.046;2023-11-18T01:06:34;48.80;;;14.00;;
76729;SDS011;65653;53.106;18.046;2023-11-18T01:09:00;54.30;;;15.20;;
76729;SDS011;65653;53.106;18.046;2023-11-18T01:11:26;51.60;;;15.70;;
76729;SDS011;65653;53.106;18.046;2023-11-18T01:13:52;53.80;;;15.00;;
76729;SDS011;65653;53.106;18.046;2023-11-18T01:16:21;53.80;;;15.40;;
76729;SDS011;65653;53.106;18.046;2023-11-18T01:18:47;39.70;;;12.30;;
76729;SDS011;65653;53.106;18.046;2023-11-18T01:21:14;53.10;;;14.50;;
76729;SDS011;65653;53.106;18.046;2023-11-18T01:23:42;46.60;;;12.50;;
76729;SDS011;65653;53.106;18.046;2023-11-18T01:26:10;49.90;;;13.90;;
76729;SDS011;65653;53.106;18.046;2023-11-18T01:28:38;39.90;;;13.20;;
76729;SDS011;65653;53.106;18.046;2023-11-18T01:31:07;41.40;;;13.40;;
76729;SDS011;65653;53.106;18.046;2023-11-18T01:33:35;25.00;;;8.10;;
76729;SDS011;65653;53.106;18.046;2023-11-18T01:36:08;33.80;;;10.30;;
76729;SDS011;65653;53.106;18.046;2023-11-18T01:38:35;31.60;;;9.50;;
76729;SDS011;65653;53.106;18.046;2023-11-18T01:41:03;68.20;;;17.20;;
76729;SDS011;65653;53.106;18.046;2023-11-18T01:43:30;43.10;;;11.80;;
76729;SDS011;65653;53.106;18.046;2023-11-18T01:46:01;65.10;;;17.20;;
76729;SDS011;65653;53.106;18.046;2023-11-18T01:48:29;69.10;;;17.50;;
76729;SDS011;65653;53.106;18.046;2023-11-18T01:50:59;53.10;;;14.20;;
76729;SDS011;65653;53.106;18.046;2023-11-18T01:53:27;58.90;;;17.00;;
76729;SDS011;65653;53.106;18.046;2023-11-18T01:55:54;40.30;;;9.60;;
76729;SDS011;65653;53.106;18.046;2023-11-18T01:58:20;55.80;;;15.40;;
76729;SDS011;65653;53.106;18.046;2023-11-18T02:00:48;44.30;;;12.30;;
76729;SDS011;65653;53.106;18.046;2023-11-18T02:03:16;49.00;;;14.40;;
76729;SDS011;65653;53.106;18.046;2023-11-18T02:05:43;47.40;;;12.80;;
76729;SDS011;65653;53.106;18.046;2023-11-18T02:08:09;41.30;;;11.20;;
76729;SDS011;65653;53.106;18.046;2023-11-18T02:10:48;49.10;;;15.20;;
76729;SDS011;65653;53.106;18.046;2023-11-18T02:13:24;50.00;;;14.20;;
76729;SDS011;65653;53.106;18.046;2023-11-18T02:15:58;54.60;;;15.70;;
76729;SDS011;65653;53.106;18.046;2023-11-18T02:18:25;34.80;;;11.40;;
76729;SDS011;65653;53.106;18.046;2023-11-18T02:20:53;40.40;;;11.60;;
76729;SDS011;65653;53.106;18.046;2023-11-18T02:23:23;36.30;;;10.90;;
76729;SDS011;65653;53.106;18.046;2023-11-18T02:25:49;46.40;;;13.20;;
76729;SDS011;65653;53.106;18.046;2023-11-18T02:28:15;54.10;;;15.60;;
76729;SDS011;65653;53.106;18.046;2023-11-18T02:30:41;51.70;;;14.10;;
76729;SDS011;65653;53.106;18.046;2023-11-18T02:33:14;37.50;;;9.80;;
76729;SDS011;65653;53.106;18.046;2023-11-18T02:35:53;41.50;;;12.30;;
76729;SDS011;65653;53.106;18.046;2023-11-18T02:38:32;36.00;;;12.50;;
76729;SDS011;65653;53.106;18.046;2023-11-18T02:41:06;56.90;;;17.40;;
76729;SDS011;65653;53.106;18.046;2023-11-18T02:43:36;57.90;;;15.60;;
76729;SDS011;65653;53.106;18.046;2023-11-18T02:46:05;56.80;;;16.50;;
76729;SDS011;65653;53.106;18.046;2023-11-18T02:48:32;60.50;;;16.10;;
76729;SDS011;65653;53.106;18.046;2023-11-18T02:50:59;66.40;;;19.10;;
76729;SDS011;65653;53.106;18.046;2023-11-18T02:53:25;53.00;;;15.50;;
76729;SDS011;65653;53.106;18.046;2023-11-18T02:55:51;62.90;;;16.00;;
76729;SDS011;65653;53.106;18.046;2023-11-18T02:58:20;68.10;;;18.60;;
76729;SDS011;65653;53.106;18.046;2023-11-18T03:00:46;50.90;;;11.90;;
76729;SDS011;65653;53.106;18.046;2023-11-18T03:03:13;39.00;;;11.50;;
76729;SDS011;65653;53.106;18.046;2023-11-18T03:05:39;71.60;;;17.20;;
76729;SDS011;65653;53.106;18.046;2023-11-18T03:08:05;65.00;;;16.90;;
76729;SDS011;65653;53.106;18.046;2023-11-18T03:10:33;52.00;;;14.00;;
76729;SDS011;65653;53.106;18.046;2023-11-18T03:13:01;67.60;;;17.60;;
76729;SDS011;65653;53.106;18.046;2023-11-18T03:15:27;65.80;;;17.40;;
76729;SDS011;65653;53.106;18.046;2023-11-18T03:17:54;74.70;;;19.50;;
76729;SDS011;65653;53.106;18.046;2023-11-18T03:20:21;56.10;;;14.80;;
76729;SDS011;65653;53.106;18.046;2023-11-18T03:22:49;63.40;;;15.50;;
76729;SDS011;65653;53.106;18.046;2023-11-18T03:25:16;70.00;;;17.80;;
76729;SDS011;65653;53.106;18.046;2023-11-18T03:27:43;75.60;;;17.40;;
76729;SDS011;65653;53.106;18.046;2023-11-18T03:30:12;75.50;;;19.70;;
76729;SDS011;65653;53.106;18.046;2023-11-18T03:32:38;62.80;;;16.30;;
76729;SDS011;65653;53.106;18.046;2023-11-18T03:35:06;63.90;;;16.90;;
76729;SDS011;65653;53.106;18.046;2023-11-18T03:37:34;79.00;;;19.20;;
76729;SDS011;65653;53.106;18.046;2023-11-18T03:40:01;76.00;;;18.60;;
76729;SDS011;65653;53.106;18.046;2023-11-18T03:42:27;81.50;;;18.90;;
76729;SDS011;65653;53.106;18.046;2023-11-18T03:44:54;71.60;;;18.70;;
76729;SDS011;65653;53.106;18.046;2023-11-18T03:47:20;79.20;;;18.10;;
76729;SDS011;65653;53.106;18.046;2023-11-18T03:49:50;74.40;;;17.60;;
76729;SDS011;65653;53.106;18.046;2023-11-18T03:52:16;53.20;;;14.50;;
76729;SDS011;65653;53.106;18.046;2023-11-18T03:54:42;59.10;;;15.40;;
76729;SDS011;65653;53.106;18.046;2023-11-18T03:57:07;76.80;;;18.80;;
76729;SDS011;65653;53.106;18.046;2023-11-18T03:59:33;61.40;;;16.60;;
76729;SDS011;65653;53.106;18.046;2023-11-18T04:01:59;68.00;;;17.80;;
76729;SDS011;65653;53.106;18.046;2023-11-18T04:04:24;67.40;;;16.90;;
76729;SDS011;65653;53.106;18.046;2023-11-18T04:06:50;73.60;;;19.00;;
76729;SDS011;65653;53.106;18.046;2023-11-18T04:09:16;54.70;;;13.60;;
76729;SDS011;65653;53.106;18.046;2023-11-18T04:11:42;72.20;;;18.50;;
76729;SDS011;65653;53.106;18.046;2023-11-18T04:14:10;83.00;;;21.30;;
76729;SDS011;65653;53.106;18.046;2023-11-18T04:16:37;43.30;;;10.60;;
76729;SDS011;65653;53.106;18.046;2023-11-18T04:19:06;61.90;;;15.20;;
76729;SDS011;65653;53.106;18.046;2023-11-18T04:21:32;54.20;;;13.90;;
76729;SDS011;65653;53.106;18.046;2023-11-18T04:23:57;54.70;;;15.10;;
76729;SDS011;65653;53.106;18.046;2023-11-18T04:26:23;62.30;;;16.80;;
76729;SDS011;65653;53.106;18.046;2023-11-18T04:28:50;63.30;;;14.90;;
76729;SDS011;65653;53.106;18.046;2023-11-18T04:31:15;72.60;;;18.20;;
76729;SDS011;65653;53.106;18.046;2023-11-18T04:33:41;60.10;;;14.40;;
76729;SDS011;65653;53.106;18.046;2023-11-18T04:36:07;64.50;;;16.40;;
76729;SDS011;65653;53.106;18.046;2023-11-18T04:38:35;65.80;;;16.70;;
76729;SDS011;65653;53.106;18.046;2023-11-18T04:41:01;85.30;;;20.60;;
76729;SDS011;65653;53.106;18.046;2023-11-18T04:43:32;54.10;;;13.70;;
76729;SDS011;65653;53.106;18.046;2023-11-18T04:45:58;44.00;;;12.50;;
76729;SDS011;65653;53.106;18.046;2023-11-18T04:48:25;60.20;;;15.90;;
76729;SDS011;65653;53.106;18.046;2023-11-18T04:50:51;78.80;;;18.20;;
76729;SDS011;65653;53.106;18.046;2023-11-18T04:53:16;48.20;;;12.30;;
76729;SDS011;65653;53.106;18.046;2023-11-18T04:55:42;58.70;;;15.20;;
76729;SDS011;65653;53.106;18.046;2023-11-18T04:58:08;45.10;;;12.40;;
76729;SDS011;65653;53.106;18.046;2023-11-18T05:00:35;62.70;;;15.00;;
76729;SDS011;65653;53.106;18.046;2023-11-18T05:03:04;64.50;;;15.70;;
76729;SDS011;65653;53.106;18.046;2023-11-18T05:05:31;47.40;;;11.80;;
76729;SDS011;65653;53.106;18.046;2023-11-18T05:07:57;65.20;;;17.80;;
76729;SDS011;65653;53.106;18.046;2023-11-18T05:10:23;46.90;;;11.90;;
76729;SDS011;65653;53.106;18.046;2023-11-18T05:12:49;54.30;;;15.70;;
76729;SDS011;65653;53.106;18.046;2023-11-18T05:15:21;44.70;;;11.20;;
76729;SDS011;65653;53.106;18.046;2023-11-18T05:17:53;47.70;;;15.00;;
76729;SDS011;65653;53.106;18.046;2023-11-18T05:20:20;50.50;;;15.40;;
76729;SDS011;65653;53.106;18.046;2023-11-18T05:22:46;52.80;;;14.90;;
76729;SDS011;65653;53.106;18.046;2023-11-18T05:25:13;56.20;;;15.50;;
76729;SDS011;65653;53.106;18.046;2023-11-18T05:27:39;51.50;;;15.10;;
76729;SDS011;65653;53.106;18.046;2023-11-18T05:30:09;48.70;;;14.80;;
76729;SDS011;65653;53.106;18.046;2023-11-18T05:32:35;38.30;;;11.40;;
76729;SDS011;65653;53.106;18.046;2023-11-18T05:35:02;39.00;;;12.30;;
76729;SDS011;65653;53.106;18.046;2023-11-18T05:37:30;44.20;;;13.20;;
76729;SDS011;65653;53.106;18.046;2023-11-18T05:42:32;39.80;;;10.60;;
76729;SDS011;65653;53.106;18.046;2023-11-18T05:45:03;50.90;;;14.80;;
76729;SDS011;65653;53.106;18.046;2023-11-18T05:47:29;47.50;;;13.00;;
76729;SDS011;65653;53.106;18.046;2023-11-18T05:49:56;47.40;;;13.40;;
76729;SDS011;65653;53.106;18.046;2023-11-18T05:52:22;50.60;;;14.70;;
76729;SDS011;65653;53.106;18.046;2023-11-18T05:54:48;47.30;;;14.00;;
76729;SDS011;65653;53.106;18.046;2023-11-18T05:57:18;35.70;;;10.20;;
76729;SDS011;65653;53.106;18.046;2023-11-18T05:59:44;46.40;;;13.10;;
76729;SDS011;65653;53.106;18.046;2023-11-18T06:02:13;38.90;;;11.20;;
76729;SDS011;65653;53.106;18.046;2023-11-18T06:04:46;53.30;;;15.00;;
76729;SDS011;65653;53.106;18.046;2023-11-18T06:07:12;50.00;;;14.30;;
76729;SDS011;65653;53.106;18.046;2023-11-18T06:09:41;49.60;;;13.30;;
76729;SDS011;65653;53.106;18.046;2023-11-18T06:12:09;54.10;;;15.80;;
76729;SDS011;65653;53.106;18.046;2023-11-18T06:14:36;69.00;;;17.90;;
76729;SDS011;65653;53.106;18.046;2023-11-18T06:17:03;50.50;;;13.20;;
76729;SDS011;65653;53.106;18.046;2023-11-18T06:19:29;44.90;;;12.20;;
76729;SDS011;65653;53.106;18.046;2023-11-18T06:21:55;66.00;;;16.10;;
76729;SDS011;65653;53.106;18.046;2023-11-18T06:24:20;64.20;;;18.60;;
76729;SDS011;65653;53.106;18.046;2023-11-18T06:26:47;67.50;;;19.00;;
76729;SDS011;65653;53.106;18.046;2023-11-18T06:29:15;38.10;;;10.70;;
76729;SDS011;65653;53.106;18.046;2023-11-18T06:31:41;57.70;;;15.50;;
76729;SDS011;65653;53.106;18.046;2023-11-18T06:34:08;70.30;;;19.10;;
76729;SDS011;65653;53.106;18.046;2023-11-18T06:36:34;74.10;;;19.20;;
76729;SDS011;65653;53.106;18.046;2023-11-18T06:39:00;60.80;;;16.30;;
76729;SDS011;65653;53.106;18.046;2023-11-18T06:41:26;69.20;;;17.90;;
76729;SDS011;65653;53.106;18.046;2023-11-18T06:43:59;70.30;;;17.20;;
76729;SDS011;65653;53.106;18.046;2023-11-18T06:46:29;36.30;;;9.90;;
76729;SDS011;65653;53.106;18.046;2023-11-18T06:49:00;63.70;;;17.80;;
76729;SDS011;65653;53.106;18.046;2023-11-18T06:51:33;39.90;;;11.70;;
76729;SDS011;65653;53.106;18.046;2023-11-18T06:54:00;62.80;;;16.10;;
76729;SDS011;65653;53.106;18.046;2023-11-18T06:56:34;65.70;;;18.30;;
76729;SDS011;65653;53.106;18.046;2023-11-18T07:01:33;63.10;;;14.60;;
76729;SDS011;65653;53.106;18.046;2023-11-18T07:04:01;63.10;;;15.80;;
76729;SDS011;65653;53.106;18.046;2023-11-18T07:06:27;64.80;;;17.40;;
76729;SDS011;65653;53.106;18.046;2023-11-18T07:08:53;61.20;;;17.00;;
76729;SDS011;65653;53.106;18.046;2023-11-18T07:11:20;59.60;;;15.70;;
76729;SDS011;65653;53.106;18.046;2023-11-18T07:13:47;64.40;;;17.30;;
76729;SDS011;65653;53.106;18.046;2023-11-18T07:16:14;54.30;;;13.70;;
76729;SDS011;65653;53.106;18.046;2023-11-18T07:18:41;43.90;;;11.50;;
76729;SDS011;65653;53.106;18.046;2023-11-18T07:21:09;66.80;;;17.80;;
76729;SDS011;65653;53.106;18.046;2023-11-18T07:23:35;67.60;;;16.20;;
76729;SDS011;65653;53.106;18.046;2023-11-18T07:26:02;52.60;;;13.90;;
76729;SDS011;65653;53.106;18.046;2023-11-18T07:28:29;35.00;;;9.40;;
76729;SDS011;65653;53.106;18.046;2023-11-18T07:30:56;55.20;;;14.00;;
76729;SDS011;65653;53.106;18.046;2023-11-18T07:33:23;71.70;;;17.40;;
76729;SDS011;65653;53.106;18.046;2023-11-18T07:35:49;39.20;;;10.90;;
76729;SDS011;65653;53.106;18.046;2023-11-18T07:38:15;51.10;;;14.10;;
76729;SDS011;65653;53.106;18.046;2023-11-18T07:40:42;74.40;;;18.00;;
76729;SDS011;65653;53.106;18.046;2023-11-18T07:43:11;50.50;;;14.40;;
76729;SDS011;65653;53.106;18.046;2023-11-18T07:45:38;45.60;;;13.40;;
76729;SDS011;65653;53.106;18.046;2023-11-18T07:48:08;49.70;;;11.90;;
76729;SDS011;65653;53.106;18.046;2023-11-18T07:50:37;28.60;;;8.40;;
76729;SDS011;65653;53.106;18.046;2023-11-18T07:53:07;38.60;;;11.60;;
76729;SDS011;65653;53.106;18.046;2023-11-18T07:55:33;44.80;;;14.60;;
76729;SDS011;65653;53.106;18.046;2023-11-18T07:58:00;53.70;;;16.30;;
76729;SDS011;65653;53.106;18.046;2023-11-18T08:00:27;35.10;;;11.50;;
76729;SDS011;65653;53.106;18.046;2023-11-18T08:02:59;48.80;;;14.60;;
76729;SDS011;65653;53.106;18.046;2023-11-18T08:05:26;39.90;;;13.80;;
76729;SDS011;65653;53.106;18.046;2023-11-18T08:07:53;35.00;;;11.40;;
76729;SDS011;65653;53.106;18.046;2023-11-18T08:10:19;31.60;;;11.30;;
76729;SDS011;65653;53.106;18.046;2023-11-18T08:12:47;32.80;;;13.40;;
76729;SDS011;65653;53.106;18.046;2023-11-18T08:15:13;33.60;;;13.60;;
76729;SDS011;65653;53.106;18.046;2023-11-18T08:17:39;28.30;;;11.40;;
76729;SDS011;65653;53.106;18.046;2023-11-18T08:20:05;30.50;;;12.20;;
76729;SDS011;65653;53.106;18.046;2023-11-18T08:22:42;22.30;;;10.40;;
76729;SDS011;65653;53.106;18.046;2023-11-18T08:25:12;20.10;;;10.40;;
76729;SDS011;65653;53.106;18.046;2023-11-18T08:27:40;20.10;;;10.20;;
76729;SDS011;65653;53.106;18.046;2023-11-18T08:30:06;22.20;;;10.40;;
76729;SDS011;65653;53.106;18.046;2023-11-18T08:32:37;20.70;;;9.40;;
76729;SDS011;65653;53.106;18.046;2023-11-18T08:35:07;18.40;;;10.10;;
76729;SDS011;65653;53.106;18.046;2023-11-18T08:37:34;22.50;;;11.30;;
76729;SDS011;65653;53.106;18.046;2023-11-18T08:40:03;19.50;;;8.00;;
76729;SDS011;65653;53.106;18.046;2023-11-18T08:42:32;25.40;;;11.80;;
76729;SDS011;65653;53.106;18.046;2023-11-18T08:45:00;17.50;;;9.00;;
76729;SDS011;65653;53.106;18.046;2023-11-18T08:47:26;23.80;;;11.40;;
76729;SDS011;65653;53.106;18.046;2023-11-18T08:49:53;19.00;;;8.90;;
76729;SDS011;65653;53.106;18.046;2023-11-18T08:52:20;22.60;;;10.20;;
76729;SDS011;65653;53.106;18.046;2023-11-18T08:54:46;25.40;;;13.90;;
76729;SDS011;65653;53.106;18.046;2023-11-18T08:57:30;24.40;;;12.50;;
76729;SDS011;65653;53.106;18.046;2023-11-18T09:00:16;20.40;;;10.10;;
76729;SDS011;65653;53.106;18.046;2023-11-18T09:03:05;22.90;;;11.60;;
76729;SDS011;65653;53.106;18.046;2023-11-18T09:05:32;16.70;;;9.30;;
76729;SDS011;65653;53.106;18.046;2023-11-18T09:07:58;20.60;;;11.80;;
76729;SDS011;65653;53.106;18.046;2023-11-18T09:10:27;19.90;;;11.60;;
76729;SDS011;65653;53.106;18.046;2023-11-18T09:12:54;18.10;;;10.40;;
76729;SDS011;65653;53.106;18.046;2023-11-18T09:15:20;17.10;;;11.40;;
76729;SDS011;65653;53.106;18.046;2023-11-18T09:17:49;22.60;;;12.50;;
76729;SDS011;65653;53.106;18.046;2023-11-18T09:20:15;15.50;;;10.90;;
76729;SDS011;65653;53.106;18.046;2023-11-18T09:22:48;16.60;;;11.50;;
76729;SDS011;65653;53.106;18.046;2023-11-18T09:25:14;15.80;;;11.30;;
76729;SDS011;65653;53.106;18.046;2023-11-18T09:27:41;17.40;;;12.10;;
76729;SDS011;65653;53.106;18.046;2023-11-18T09:30:08;16.20;;;12.60;;
76729;SDS011;65653;53.106;18.046;2023-11-18T09:32:40;12.70;;;9.30;;
76729;SDS011;65653;53.106;18.046;2023-11-18T09:35:08;14.20;;;10.50;;
76729;SDS011;65653;53.106;18.046;2023-11-18T09:37:35;13.40;;;11.00;;
76729;SDS011;65653;53.106;18.046;2023-11-18T09:40:02;12.70;;;9.80;;
76729;SDS011;65653;53.106;18.046;2023-11-18T09:42:37;11.70;;;9.60;;
76729;SDS011;65653;53.106;18.046;2023-11-18T09:45:05;9.50;;;8.10;;
76729;SDS011;65653;53.106;18.046;2023-11-18T09:47:33;11.50;;;9.40;;
76729;SDS011;65653;53.106;18.046;2023-11-18T09:50:07;12.60;;;9.50;;
76729;SDS011;65653;53.106;18.046;2023-11-18T09:52:41;11.40;;;9.40;;
76729;SDS011;65653;53.106;18.046;2023-11-18T09:55:32;10.00;;;8.30;;
76729;SDS011;65653;53.106;18.046;2023-11-18T09:58:09;13.20;;;10.00;;
76729;SDS011;65653;53.106;18.046;2023-11-18T10:00:41;11.20;;;9.20;;
76729;SDS011;65653;53.106;18.046;2023-11-18T10:03:07;11.80;;;9.20;;
76729;SDS011;65653;53.106;18.046;2023-11-18T10:05:36;9.40;;;7.20;;
76729;SDS011;65653;53.106;18.046;2023-11-18T10:08:05;9.20;;;8.20;;
76729;SDS011;65653;53.106;18.046;2023-11-18T10:10:34;10.00;;;8.80;;
76729;SDS011;65653;53.106;18.046;2023-11-18T10:13:03;11.80;;;8.10;;
76729;SDS011;65653;53.106;18.046;2023-11-18T10:15:50;11.00;;;9.10;;
76729;SDS011;65653;53.106;18.046;2023-11-18T10:18:20;11.10;;;9.00;;
76729;SDS011;65653;53.106;18.046;2023-11-18T10:20:49;9.80;;;8.60;;
76729;SDS011;65653;53.106;18.046;2023-11-18T10:23:22;14.90;;;11.90;;
76729;SDS011;65653;53.106;18.046;2023-11-18T10:25:53;10.80;;;9.40;;
76729;SDS011;65653;53.106;18.046;2023-11-18T10:28:25;7.50;;;6.50;;
76729;SDS011;65653;53.106;18.046;2023-11-18T10:31:07;7.80;;;7.00;;
76729;SDS011;65653;53.106;18.046;2023-11-18T10:33:36;7.60;;;6.90;;
76729;SDS011;65653;53.106;18.046;2023-11-18T10:36:04;5.90;;;5.40;;
76729;SDS011;65653;53.106;18.046;2023-11-18T10:38:39;7.00;;;5.40;;
76729;SDS011;65653;53.106;18.046;2023-11-18T10:41:09;8.90;;;8.00;;
76729;SDS011;65653;53.106;18.046;2023-11-18T10:43:35;7.80;;;7.10;;
76729;SDS011;65653;53.106;18.046;2023-11-18T10:46:08;8.70;;;7.80;;
76729;SDS011;65653;53.106;18.046;2023-11-18T10:51:12;7.80;;;7.10;;
76729;SDS011;65653;53.106;18.046;2023-11-18T10:53:42;8.00;;;7.20;;
76729;SDS011;65653;53.106;18.046;2023-11-18T10:56:24;7.80;;;6.60;;
76729;SDS011;65653;53.106;18.046;2023-11-18T10:59:04;8.20;;;7.40;;
76729;SDS011;65653;53.106;18.046;2023-11-18T11:01:35;9.00;;;8.10;;
76729;SDS011;65653;53.106;18.046;2023-11-18T11:04:08;10.20;;;8.20;;
76729;SDS011;65653;53.106;18.046;2023-11-18T11:06:39;9.60;;;7.70;;
76729;SDS011;65653;53.106;18.046;2023-11-18T11:09:07;6.80;;;6.20;;
76729;SDS011;65653;53.106;18.046;2023-11-18T11:11:57;6.10;;;5.50;;
76729;SDS011;65653;53.106;18.046;2023-11-18T11:14:33;7.50;;;6.50;;
76729;SDS011;65653;53.106;18.046;2023-11-18T11:17:07;7.60;;;6.80;;
76729;SDS011;65653;53.106;18.046;2023-11-18T11:22:38;8.00;;;7.20;;
76729;SDS011;65653;53.106;18.046;2023-11-18T11:25:22;7.10;;;6.40;;
76729;SDS011;65653;53.106;18.046;2023-11-18T11:28:04;7.90;;;7.10;;
76729;SDS011;65653;53.106;18.046;2023-11-18T11:33:18;6.20;;;5.60;;
76729;SDS011;65653;53.106;18.046;2023-11-18T11:35:55;7.60;;;6.20;;
76729;SDS011;65653;53.106;18.046;2023-11-18T11:38:23;7.50;;;6.60;;
76729;SDS011;65653;53.106;18.046;2023-11-18T11:40:50;9.70;;;7.50;;
76729;SDS011;65653;53.106;18.046;2023-11-18T11:43:19;8.50;;;6.70;;
76729;SDS011;65653;53.106;18.046;2023-11-18T11:45:50;7.80;;;6.90;;
76729;SDS011;65653;53.106;18.046;2023-11-18T11:48:24;8.20;;;7.00;;
76729;SDS011;65653;53.106;18.046;2023-11-18T11:51:05;8.00;;;6.10;;
76729;SDS011;65653;53.106;18.046;2023-11-18T11:53:53;8.20;;;5.10;;
76729;SDS011;65653;53.106;18.046;2023-11-18T11:56:45;6.70;;;5.50;;
76729;SDS011;65653;53.106;18.046;2023-11-18T11:59:15;6.60;;;4.90;;
76729;SDS011;65653;53.106;18.046;2023-11-18T12:01:41;7.70;;;5.40;;
76729;SDS011;65653;53.106;18.046;2023-11-18T12:04:14;8.10;;;4.90;;
76729;SDS011;65653;53.106;18.046;2023-11-18T12:06:47;4.20;;;3.00;;
76729;SDS011;65653;53.106;18.046;2023-11-18T12:09:18;7.10;;;5.00;;
76729;SDS011;65653;53.106;18.046;2023-11-18T12:11:45;9.40;;;5.50;;
76729;SDS011;65653;53.106;18.046;2023-11-18T12:14:14;7.60;;;4.80;;
76729;SDS011;65653;53.106;18.046;2023-11-18T12:17:03;7.20;;;4.40;;
76729;SDS011;65653;53.106;18.046;2023-11-18T12:19:39;7.00;;;4.00;;
76729;SDS011;65653;53.106;18.046;2023-11-18T12:22:13;6.00;;;3.60;;
76729;SDS011;65653;53.106;18.046;2023-11-18T12:32:58;7.70;;;5.10;;
76729;SDS011;65653;53.106;18.046;2023-11-18T12:35:26;5.90;;;4.10;;
76729;SDS011;65653;53.106;18.046;2023-11-18T12:40:42;8.30;;;5.10;;
76729;SDS011;65653;53.106;18.046;2023-11-18T12:49:15;7.70;;;4.30;;
76729;SDS011;65653;53.106;18.046;2023-11-18T12:51:42;4.90;;;3.60;;
76729;SDS011;65653;53.106;18.046;2023-11-18T12:54:10;4.60;;;3.10;;
76729;SDS011;65653;53.106;18.046;2023-11-18T12:56:41;7.80;;;4.70;;
76729;SDS011;65653;53.106;18.046;2023-11-18T12:59:16;6.30;;;3.50;;
76729;SDS011;65653;53.106;18.046;2023-11-18T13:01:52;9.70;;;6.10;;
76729;SDS011;65653;53.106;18.046;2023-11-18T13:04:22;6.90;;;4.40;;
76729;SDS011;65653;53.106;18.046;2023-11-18T13:06:50;8.10;;;5.70;;
76729;SDS011;65653;53.106;18.046;2023-11-18T13:09:17;7.50;;;4.00;;
76729;SDS011;65653;53.106;18.046;2023-11-18T13:12:01;7.90;;;4.80;;
76729;SDS011;65653;53.106;18.046;2023-11-18T13:14:30;8.20;;;4.80;;
76729;SDS011;65653;53.106;18.046;2023-11-18T13:17:08;7.70;;;4.70;;
76729;SDS011;65653;53.106;18.046;2023-11-18T13:19:37;9.10;;;5.20;;
76729;SDS011;65653;53.106;18.046;2023-11-18T13:22:04;9.30;;;4.90;;
76729;SDS011;65653;53.106;18.046;2023-11-18T13:24:40;10.30;;;5.90;;
76729;SDS011;65653;53.106;18.046;2023-11-18T13:27:13;8.20;;;5.10;;
76729;SDS011;65653;53.106;18.046;2023-11-18T13:29:45;5.40;;;3.50;;
76729;SDS011;65653;53.106;18.046;2023-11-18T13:32:17;9.80;;;5.90;;
76729;SDS011;65653;53.106;18.046;2023-11-18T13:34:43;10.30;;;6.00;;
76729;SDS011;65653;53.106;18.046;2023-11-18T13:37:10;11.60;;;6.30;;
76729;SDS011;65653;53.106;18.046;2023-11-18T13:39:38;8.40;;;5.10;;
76729;SDS011;65653;53.106;18.046;2023-11-18T13:42:20;8.20;;;5.20;;
76729;SDS011;65653;53.106;18.046;2023-11-18T13:44:47;10.60;;;6.20;;
76729;SDS011;65653;53.106;18.046;2023-11-18T13:47:16;8.50;;;5.00;;
76729;SDS011;65653;53.106;18.046;2023-11-18T13:49:42;9.30;;;6.20;;
76729;SDS011;65653;53.106;18.046;2023-11-18T13:52:09;9.30;;;4.60;;
76729;SDS011;65653;53.106;18.046;2023-11-18T13:54:41;10.10;;;5.60;;
76729;SDS011;65653;53.106;18.046;2023-11-18T13:57:10;9.50;;;5.40;;
76729;SDS011;65653;53.106;18.046;2023-11-18T13:59:40;12.10;;;6.70;;
76729;SDS011;65653;53.106;18.046;2023-11-18T14:02:08;9.30;;;5.40;;
76729;SDS011;65653;53.106;18.046;2023-11-18T14:04:34;9.10;;;5.40;;
76729;SDS011;65653;53.106;18.046;2023-11-18T14:07:01;9.80;;;5.40;;
76729;SDS011;65653;53.106;18.046;2023-11-18T14:09:31;9.70;;;4.80;;
76729;SDS011;65653;53.106;18.046;2023-11-18T14:12:01;8.30;;;5.00;;
76729;SDS011;65653;53.106;18.046;2023-11-18T14:14:28;10.50;;;5.40;;
76729;SDS011;65653;53.106;18.046;2023-11-18T14:16:55;9.60;;;4.80;;
76729;SDS011;65653;53.106;18.046;2023-11-18T14:19:27;9.80;;;5.60;;
76729;SDS011;65653;53.106;18.046;2023-11-18T14:21:57;11.00;;;6.30;;
76729;SDS011;65653;53.106;18.046;2023-11-18T14:24:23;12.20;;;6.90;;
76729;SDS011;65653;53.106;18.046;2023-11-18T14:26:55;10.20;;;5.20;;
76729;SDS011;65653;53.106;18.046;2023-11-18T14:29:22;8.90;;;5.10;;
76729;SDS011;65653;53.106;18.046;2023-11-18T14:31:49;10.60;;;6.10;;
76729;SDS011;65653;53.106;18.046;2023-11-18T14:34:15;14.90;;;7.90;;
76729;SDS011;65653;53.106;18.046;2023-11-18T14:36:41;21.60;;;10.60;;
76729;SDS011;65653;53.106;18.046;2023-11-18T14:39:10;14.80;;;7.60;;
76729;SDS011;65653;53.106;18.046;2023-11-18T14:41:38;14.50;;;7.80;;
76729;SDS011;65653;53.106;18.046;2023-11-18T14:44:04;21.60;;;11.10;;
76729;SDS011;65653;53.106;18.046;2023-11-18T14:46:30;13.70;;;7.40;;
76729;SDS011;65653;53.106;18.046;2023-11-18T14:48:57;14.50;;;8.10;;
76729;SDS011;65653;53.106;18.046;2023-11-18T14:51:23;16.30;;;8.30;;
76729;SDS011;65653;53.106;18.046;2023-11-18T14:53:49;19.60;;;10.50;;
76729;SDS011;65653;53.106;18.046;2023-11-18T14:56:15;16.50;;;8.20;;